Ana Sayfa
METAR-TAF:

METAR-TAF

Havaalanları :

Grand Prairie Municipal Airport

Grand Prairie, Teksas, Amerika Birleşik Devletleri

Enlem: 32-41-55N, Boylam: 097-02-48W, yükseklik: 180 m

Güncel hava durumu gözlemi

Rapor saat 03:15 UTC de 30 dakika önce yapıldı.
Rüzgar güneydan 6 kt
Sıcaklık 10°C
Nem 40%
Basınç 1024 hPa
Görüş mesafesi: 16.1 km
Açık gökyüzü

METAR: KGPM 280315Z AUTO 17006KT 10SM CLR 10/M03 A3025 RMK AO2 T01011035

Saat: 21:45 (03:45 UTC)


TAF: eksik

4.000'den fazla havaalanı için hava durumu gözlemleri ve tahminleri (METAR ve TAF raporları).

Kullanılabilir istasyonlar harita üzerinde sarı ve kırmızı noktalarla gösterilir.

İstasyonun adını görmek için fareyi noktanın üzerinde gezdirin.

Sonrasında hava gözlem ve tahminlerini görmek için tıklayın.

Haritayı değiştirmek için: yaklaştırmak için siyah artı işaretli yeşil düğmeye ve uzaklaştırmak için de eksi işaretli düğmeye hızla tıklayın; bitişik haritalar için yeşil okları kullanın.


METAR-TAF: